Tyrone, New York
Current Conditions -  °F | °C
As of 5:53 AM on Sunday 21 Dec 2014 (Local Time) from KPEO Reporting Station
Overcast Overcast  
Wind Chill: 29°   Ceiling: 2600
Heat Index: 29°   Visibility: 10mi
Dew Point: 22°   Wind: 3mph
Humidity: 75%   Direction: 220°SW
Pressure: 30.26"   Gusts: NA
Location:  42.41°N, 77.06°W
Report Text: KPEO 211053Z AUTO 22003KT 10SM OVC026 M02/M06 A3026 RMK AO2 SLP260 T10171056
Loading
Personal Weather Stations






























Interactive Weather Map New forecast layout! Learn more

10-Day Weather Forecast

Advertisements
Track Severe Weather on mobile